createdAt,value
2018-06-03T12:40:40.229Z,30.10
2018-06-03T12:43:08.435Z,30.60
2018-06-03T12:45:36.599Z,30.70
2018-06-03T12:48:05.049Z,30.80
2018-06-03T12:53:01.093Z,30.90
2018-06-03T12:55:29.430Z,31.00
2018-06-03T12:57:57.583Z,31.10
2018-06-03T13:00:25.736Z,31.10
2018-06-03T13:02:53.909Z,31.20
2018-06-03T13:05:22.084Z,31.20
2018-06-03T13:07:50.244Z,31.00
2018-06-03T13:10:18.457Z,30.30
2018-06-03T13:12:46.618Z,30.00
2018-06-03T13:15:14.772Z,29.90
2018-06-03T13:17:42.937Z,29.90
2018-06-03T13:20:11.121Z,29.80
2018-06-03T13:22:39.346Z,29.90
2018-06-03T13:25:08.060Z,29.80
2018-06-03T13:27:36.193Z,29.40
2018-06-03T13:30:04.484Z,29.30
2018-06-03T13:32:32.681Z,29.30
2018-06-03T13:35:00.897Z,29.60
2018-06-03T13:37:29.075Z,29.90
2018-06-03T13:39:57.232Z,30.00
2018-06-03T13:42:25.380Z,29.90
2018-06-03T13:44:53.569Z,30.00
2018-06-03T13:47:21.728Z,30.20
2018-06-03T13:49:49.900Z,30.60
2018-06-03T13:52:18.084Z,30.70
2018-06-03T13:54:46.254Z,30.60
2018-06-03T13:57:14.396Z,30.60
2018-06-03T13:59:42.593Z,30.70
2018-06-03T14:02:10.798Z,30.90
2018-06-03T14:04:39.008Z,30.70
2018-06-03T14:07:07.204Z,30.60
2018-06-03T14:09:35.417Z,30.50
2018-06-03T14:12:03.908Z,30.40
2018-06-03T14:14:32.985Z,30.20
2018-06-03T14:17:01.172Z,29.90
2018-06-03T14:19:29.516Z,29.70
2018-06-03T14:21:57.697Z,29.40
2018-06-03T14:24:25.880Z,29.20
2018-06-03T14:26:54.041Z,29.10
2018-06-03T14:29:22.200Z,29.10
2018-06-03T14:31:50.453Z,29.00
2018-06-03T14:34:18.589Z,28.90
2018-06-03T14:36:46.740Z,28.70
2018-06-03T14:39:14.884Z,28.70
2018-06-03T14:41:43.128Z,28.70
2018-06-03T14:44:11.313Z,28.50
2018-06-03T14:46:39.495Z,28.50
2018-06-03T14:49:07.670Z,28.60
2018-06-03T14:51:35.818Z,28.60
2018-06-03T14:54:03.989Z,28.80
2018-06-03T14:56:32.148Z,28.90
2018-06-03T14:59:00.285Z,29.10
2018-06-03T15:01:28.503Z,29.10
2018-06-03T15:03:57.125Z,29.30
2018-06-03T15:06:25.319Z,29.20
2018-06-03T15:08:53.478Z,29.20
2018-06-03T15:11:21.634Z,29.10
2018-06-03T15:13:49.796Z,29.10
2018-06-03T15:16:17.978Z,29.10
2018-06-03T15:18:46.150Z,28.90
2018-06-03T15:21:14.320Z,28.90
2018-06-03T15:23:42.531Z,28.90
2018-06-03T15:26:10.752Z,28.80
2018-06-03T15:28:38.918Z,28.90
2018-06-03T15:31:07.152Z,28.90
2018-06-03T15:33:35.387Z,28.70
2018-06-03T15:36:03.553Z,28.60
2018-06-03T15:38:31.754Z,28.50
2018-06-03T15:40:59.951Z,28.20
2018-06-03T15:43:28.115Z,28.00
2018-06-03T15:45:56.287Z,28.00
2018-06-03T15:48:24.472Z,27.80
2018-06-03T15:50:52.629Z,27.80
2018-06-03T15:53:20.782Z,27.80
2018-06-03T15:55:48.972Z,27.60
2018-06-03T15:58:17.112Z,27.60
2018-06-03T16:00:45.264Z,27.50
2018-06-03T16:03:13.519Z,27.50
2018-06-03T16:05:41.673Z,27.40
2018-06-03T16:08:09.816Z,27.30
2018-06-03T16:10:37.984Z,27.30
2018-06-03T16:13:06.177Z,27.30
2018-06-03T16:15:34.306Z,27.20
2018-06-03T16:18:02.458Z,27.20
2018-06-03T16:20:30.629Z,27.20
2018-06-03T16:25:26.712Z,27.00
2018-06-03T16:27:54.872Z,27.00
2018-06-03T16:30:23.076Z,27.00
2018-06-03T16:32:51.214Z,27.10
2018-06-03T16:35:19.397Z,27.20
2018-06-03T16:37:47.589Z,27.30
2018-06-03T16:40:15.934Z,27.30
2018-06-03T16:42:44.089Z,27.20
2018-06-03T16:45:12.248Z,27.30
2018-06-03T16:47:40.410Z,27.20
2018-06-03T16:50:08.557Z,27.10
2018-06-03T16:52:36.725Z,27.00
2018-06-03T16:55:04.912Z,27.00
2018-06-03T16:57:33.080Z,26.90
2018-06-03T17:00:01.228Z,26.70
2018-06-03T17:02:29.454Z,26.50
2018-06-03T17:04:57.617Z,26.40
2018-06-03T17:07:25.784Z,26.30
2018-06-03T17:09:53.953Z,26.20
2018-06-03T17:12:22.148Z,26.20
2018-06-03T17:14:50.405Z,26.20
2018-06-03T17:17:18.514Z,26.10
2018-06-03T17:19:46.668Z,26.00
2018-06-03T17:22:14.847Z,26.00
2018-06-03T17:24:43.029Z,25.90
2018-06-03T17:27:11.205Z,25.90
2018-06-03T17:29:39.371Z,25.80
2018-06-03T17:32:07.536Z,25.60
2018-06-03T17:34:35.676Z,25.40
2018-06-03T17:37:03.841Z,25.30
2018-06-03T17:39:32.045Z,25.20
2018-06-03T17:42:00.229Z,25.20
2018-06-03T17:44:28.380Z,25.20
2018-06-03T17:46:56.562Z,25.20
2018-06-03T17:49:24.674Z,25.10
2018-06-03T17:51:52.816Z,25.10
2018-06-03T17:54:20.961Z,25.10
2018-06-03T17:56:49.092Z,25.10
2018-06-03T17:59:17.274Z,25.10
2018-06-03T18:01:45.397Z,25.00
2018-06-03T18:04:13.537Z,25.00
2018-06-03T18:06:41.689Z,24.90
2018-06-03T18:09:09.824Z,24.90
2018-06-03T18:11:37.953Z,24.80
2018-06-03T18:14:06.100Z,24.80
2018-06-03T18:16:34.282Z,24.80
2018-06-03T18:19:02.385Z,24.80
2018-06-03T18:21:30.541Z,24.70
2018-06-03T18:23:58.846Z,24.70
2018-06-03T18:26:26.973Z,24.70
2018-06-03T18:28:55.128Z,24.70
2018-06-03T18:31:23.289Z,24.60
2018-06-03T18:33:51.424Z,24.60
2018-06-03T18:36:19.560Z,24.60
2018-06-03T18:38:47.721Z,24.50
2018-06-03T18:41:15.865Z,24.50
2018-06-03T18:43:43.998Z,24.40
2018-06-03T18:46:12.174Z,24.30
2018-06-03T18:48:40.309Z,24.20
2018-06-03T18:51:08.456Z,24.20
2018-06-03T18:53:36.621Z,24.20
2018-06-03T18:56:04.799Z,24.10
2018-06-03T18:58:32.933Z,24.00
2018-06-03T19:01:01.094Z,24.00
2018-06-03T19:03:29.248Z,24.00
2018-06-03T19:05:57.428Z,23.90
2018-06-03T19:08:25.581Z,23.80
2018-06-03T19:10:53.764Z,23.80
2018-06-03T19:13:23.301Z,23.80
2018-06-03T19:15:51.605Z,23.70
2018-06-03T19:20:49.161Z,23.60
2018-06-03T19:23:19.033Z,23.60
2018-06-03T19:25:47.198Z,23.50
2018-06-03T19:28:15.408Z,23.50
2018-06-03T19:30:43.686Z,23.40
2018-06-03T19:33:12.060Z,23.40
2018-06-03T19:35:40.274Z,23.30
2018-06-03T19:38:08.481Z,23.20
2018-06-03T19:40:36.712Z,23.10
2018-06-03T19:43:05.819Z,23.10
2018-06-03T19:45:33.998Z,23.00
2018-06-03T19:48:02.214Z,22.90
2018-06-03T19:52:58.290Z,22.80
2018-06-03T19:55:26.574Z,22.80
2018-06-03T19:57:54.761Z,22.70
2018-06-03T20:00:22.970Z,22.70
2018-06-03T20:02:51.241Z,22.60
2018-06-03T20:05:19.477Z,22.50
2018-06-03T20:07:47.653Z,22.40
2018-06-03T20:10:15.883Z,22.40
2018-06-03T20:12:44.097Z,22.30
2018-06-03T20:15:12.315Z,22.20
2018-06-03T20:17:40.557Z,22.10
2018-06-03T20:20:08.729Z,22.10
2018-06-03T20:22:36.957Z,22.00
2018-06-03T20:25:05.204Z,22.00
2018-06-03T20:30:01.333Z,21.90
2018-06-03T20:32:29.518Z,21.90
2018-06-03T20:34:57.725Z,21.90
2018-06-03T20:39:53.858Z,21.70
2018-06-03T20:42:22.069Z,21.50
2018-06-03T20:44:50.254Z,21.40
2018-06-03T20:47:18.521Z,21.30
2018-06-03T20:49:46.726Z,21.30
2018-06-03T20:52:14.937Z,21.20
2018-06-03T20:54:43.161Z,21.10
2018-06-03T20:57:11.410Z,21.10
2018-06-03T20:59:39.632Z,20.90
2018-06-03T21:02:07.861Z,20.80
2018-06-03T21:04:36.062Z,20.80
2018-06-03T21:07:04.266Z,20.70
2018-06-03T21:09:32.485Z,20.60
2018-06-03T21:12:00.696Z,20.60
2018-06-03T21:14:28.940Z,20.50
2018-06-03T21:16:57.169Z,20.40
2018-06-03T21:19:25.368Z,20.40
2018-06-03T21:21:53.596Z,20.40
2018-06-03T21:24:21.829Z,20.30
2018-06-03T21:26:50.013Z,20.20
2018-06-03T21:29:18.173Z,20.10
2018-06-03T21:31:46.383Z,20.10
2018-06-03T21:34:14.552Z,20.00
2018-06-03T21:36:42.746Z,20.00
2018-06-03T21:39:11.440Z,20.00
2018-06-03T21:41:39.657Z,20.00
2018-06-03T21:44:07.834Z,20.00
2018-06-03T21:46:36.041Z,20.00
2018-06-03T21:49:04.258Z,19.90
2018-06-03T21:51:32.477Z,19.90
2018-06-03T21:54:00.709Z,19.80
2018-06-03T21:56:28.936Z,19.80
2018-06-03T21:58:57.134Z,19.70
2018-06-03T22:01:25.353Z,19.70
2018-06-03T22:03:53.521Z,19.60
2018-06-03T22:06:21.739Z,19.60
2018-06-03T22:08:49.945Z,19.60
2018-06-03T22:11:18.222Z,19.50
2018-06-03T22:13:46.388Z,19.40
2018-06-03T22:16:14.619Z,19.30
2018-06-03T22:18:42.842Z,19.30
2018-06-03T22:21:11.049Z,19.30
2018-06-03T22:23:39.243Z,19.20
2018-06-03T22:26:07.434Z,19.10
2018-06-03T22:28:35.630Z,19.10
2018-06-03T22:31:04.103Z,19.00
2018-06-03T22:33:32.343Z,18.90
2018-06-03T22:36:00.529Z,18.80
2018-06-03T22:38:28.745Z,18.80
2018-06-03T22:40:56.966Z,18.80
2018-06-03T22:43:25.145Z,18.80
2018-06-03T22:45:53.348Z,18.80
2018-06-03T22:48:21.546Z,18.80
2018-06-03T22:50:49.754Z,18.70
2018-06-03T22:53:17.956Z,18.70
2018-06-03T22:55:46.162Z,18.70
2018-06-03T22:58:14.362Z,18.70
2018-06-03T23:00:42.604Z,18.70
2018-06-03T23:03:14.970Z,18.70
2018-06-03T23:05:43.305Z,18.60
2018-06-03T23:08:11.516Z,18.50
2018-06-03T23:10:39.753Z,18.50
2018-06-03T23:13:08.103Z,18.50
2018-06-03T23:15:36.320Z,18.40
2018-06-03T23:18:04.539Z,18.40
2018-06-03T23:20:32.810Z,18.30
2018-06-03T23:23:01.024Z,18.30
2018-06-03T23:25:29.217Z,18.30
2018-06-03T23:27:57.403Z,18.30
2018-06-03T23:30:25.598Z,18.30
2018-06-03T23:32:53.794Z,18.30
2018-06-03T23:35:22.259Z,18.30
2018-06-03T23:37:50.449Z,18.30
2018-06-03T23:40:18.658Z,18.30
2018-06-03T23:42:46.967Z,18.30
2018-06-03T23:45:15.140Z,18.20
2018-06-03T23:47:43.342Z,18.20
2018-06-03T23:52:39.518Z,18.10
2018-06-03T23:55:07.700Z,18.10
2018-06-03T23:57:35.922Z,18.00
